Time;durP1;ratioP1;P1;durP2;ratioP2;P2;SDS_P1;SDS_P2;PMS_P1;PMS_P2;Temp;Humidity;BMP_temperature;BMP_pressure;BME280_temperature;BME280_humidity;BME280_pressure;Samples;Min_cycle;Max_cycle;Signal;HPM_P1;HPM_P2
2023/10/08 00:01:55;;;;;;;14.05;6.22;;;18.20;99.90;;;;;;5033287;28;20207;-64
2023/10/08 00:04:22;;;;;;;15.57;5.55;;;18.20;99.90;;;;;;5033321;28;20175;-64
2023/10/08 00:06:47;;;;;;;9.80;6.15;;;18.20;99.90;;;;;;5033293;28;20539;-64
2023/10/08 00:09:14;;;;;;;11.02;5.28;;;18.20;99.90;;;;;;5033804;28;20167;-64
2023/10/08 00:11:40;;;;;;;12.55;6.45;;;18.10;99.90;;;;;;5033231;28;20199;-64
2023/10/08 00:14:10;;;;;;;12.88;6.53;;;18.10;99.90;;;;;;5037136;28;20198;-63
2023/10/08 00:16:39;;;;;;;11.40;5.60;;;18.10;99.90;;;;;;5037323;28;20236;-63
2023/10/08 00:19:13;;;;;;;12.15;5.47;;;18.10;99.90;;;;;;5036005;28;20186;-63
2023/10/08 00:21:39;;;;;;;9.82;5.53;;;18.10;99.90;;;;;;5035793;28;20211;-64
2023/10/08 00:24:09;;;;;;;13.48;6.97;;;18.10;99.90;;;;;;5037207;28;20258;-63
2023/10/08 00:26:39;;;;;;;11.23;6.43;;;18.00;99.90;;;;;;5037721;28;20163;-64
2023/10/08 00:29:16;;;;;;;13.90;5.63;;;18.10;99.90;;;;;;5037788;28;20182;-64
2023/10/08 00:31:44;;;;;;;10.60;5.72;;;18.00;99.90;;;;;;5037177;28;20190;-64
2023/10/08 00:34:14;;;;;;;10.05;5.30;;;18.00;99.90;;;;;;5035855;28;20183;-64
2023/10/08 00:36:44;;;;;;;14.40;5.90;;;18.00;99.90;;;;;;5037076;28;20202;-63
2023/10/08 00:39:14;;;;;;;10.57;5.40;;;18.00;99.90;;;;;;5036759;28;20236;-64
2023/10/08 00:41:45;;;;;;;13.98;5.47;;;18.00;99.90;;;;;;5036790;28;20222;-64
2023/10/08 00:44:30;;;;;;;13.25;6.00;;;17.90;99.90;;;;;;5035554;28;20182;-64
2023/10/08 00:47:00;;;;;;;8.90;5.28;;;17.90;99.90;;;;;;5036883;28;20733;-63
2023/10/08 00:55:28;;;;;;;11.52;5.55;;;18.00;99.90;;;;;;5036913;28;20652;-64
2023/10/08 00:57:29;;;;;;;10.77;5.85;;;17.90;99.90;;;;;;5039246;28;20260;-64
2023/10/08 00:59:56;;;;;;;14.10;5.60;;;17.80;99.90;;;;;;5036432;28;20198;-63
2023/10/08 01:02:27;;;;;;;9.50;5.28;;;17.80;99.90;;;;;;5037555;28;20651;-64
2023/10/08 01:04:54;;;;;;;12.45;5.97;;;17.80;99.90;;;;;;5036479;28;20167;-64
2023/10/08 01:07:21;;;;;;;14.02;5.88;;;17.80;99.90;;;;;;5035995;28;20167;-63
2023/10/08 01:09:51;;;;;;;13.00;5.63;;;17.80;99.90;;;;;;5034990;28;20163;-64
2023/10/08 01:12:27;;;;;;;10.88;5.65;;;17.70;99.90;;;;;;5036123;28;20233;-64
2023/10/08 01:14:53;;;;;;;10.48;5.88;;;17.70;99.90;;;;;;5036214;28;20211;-64
2023/10/08 01:17:24;;;;;;;9.02;4.90;;;17.70;99.90;;;;;;5036121;28;20647;-64
2023/10/08 01:19:54;;;;;;;15.15;5.60;;;17.60;99.90;;;;;;5036413;28;20163;-64
2023/10/08 01:22:22;;;;;;;12.95;6.60;;;17.60;99.90;;;;;;5035917;28;20201;-64
2023/10/08 01:24:51;;;;;;;10.75;6.03;;;17.60;99.90;;;;;;5033857;28;20171;-64
2023/10/08 01:27:24;;;;;;;11.13;5.75;;;17.60;99.90;;;;;;5035963;28;20175;-64
2023/10/08 01:29:53;;;;;;;11.73;5.50;;;17.60;99.90;;;;;;5036437;28;20179;-64
2023/10/08 01:32:21;;;;;;;11.88;5.55;;;17.70;99.90;;;;;;5035844;28;20219;-64
2023/10/08 01:34:47;;;;;;;12.18;6.07;;;17.70;99.90;;;;;;5035927;28;20618;-64
2023/10/08 01:37:16;;;;;;;11.98;5.50;;;17.80;99.90;;;;;;5035607;28;20167;-64
2023/10/08 01:39:45;;;;;;;14.57;6.05;;;17.80;99.90;;;;;;5035470;28;20190;-64
2023/10/08 01:42:21;;;;;;;13.93;6.22;;;17.80;99.90;;;;;;5035606;28;20229;-64
2023/10/08 01:44:54;;;;;;;13.93;5.90;;;17.70;99.90;;;;;;5036153;28;20159;-64
2023/10/08 01:47:20;;;;;;;15.80;7.47;;;17.70;99.90;;;;;;5034243;28;20270;-63
2023/10/08 01:49:46;;;;;;;15.27;6.35;;;17.70;99.90;;;;;;5035450;28;20263;-64
2023/10/08 01:52:22;;;;;;;15.65;6.43;;;17.70;99.90;;;;;;5035333;28;20194;-64
2023/10/08 01:54:49;;;;;;;12.85;6.80;;;17.70;99.90;;;;;;5035508;28;20659;-64
2023/10/08 01:57:16;;;;;;;11.00;5.97;;;17.70;99.90;;;;;;5035346;28;20541;-64
2023/10/08 01:59:44;;;;;;;12.32;6.28;;;17.60;99.90;;;;;;5035353;28;20167;-64
2023/10/08 02:02:10;;;;;;;11.40;6.20;;;17.60;99.90;;;;;;5033907;28;20198;-64
2023/10/08 02:04:36;;;;;;;12.02;5.80;;;17.60;99.90;;;;;;5035790;28;20167;-64
2023/10/08 02:07:13;;;;;;;12.18;6.07;;;17.60;99.90;;;;;;5035217;28;20519;-63
2023/10/08 02:09:39;;;;;;;10.27;5.70;;;17.60;99.90;;;;;;5035137;28;20155;-63
2023/10/08 02:12:05;;;;;;;13.73;6.45;;;17.70;99.90;;;;;;5034926;28;20222;-63
2023/10/08 02:14:31;;;;;;;14.98;6.32;;;17.70;99.90;;;;;;5035023;28;20183;-64
2023/10/08 02:17:01;;;;;;;9.75;5.53;;;17.60;99.90;;;;;;5034908;28;20298;-63
2023/10/08 02:19:29;;;;;;;15.43;6.50;;;17.60;99.90;;;;;;5035597;28;20167;-63
2023/10/08 02:21:56;;;;;;;16.58;7.43;;;17.60;99.90;;;;;;5034705;28;20215;-64
2023/10/08 02:24:24;;;;;;;14.27;6.43;;;17.50;99.90;;;;;;5035078;28;20175;-63
2023/10/08 02:26:54;;;;;;;11.02;5.78;;;17.50;99.90;;;;;;5035271;28;20152;-63
2023/10/08 02:29:23;;;;;;;13.15;6.53;;;17.40;99.90;;;;;;5035061;28;20183;-63
2023/10/08 02:31:48;;;;;;;14.40;6.00;;;17.40;99.90;;;;;;5034907;28;20194;-63
2023/10/08 02:34:15;;;;;;;13.18;6.55;;;17.40;99.90;;;;;;5034793;28;20584;-64
2023/10/08 02:36:41;;;;;;;11.85;6.22;;;17.40;99.90;;;;;;5033185;28;20648;-64
2023/10/08 02:39:21;;;;;;;13.93;6.25;;;17.40;99.90;;;;;;5033255;28;20574;-64
2023/10/08 02:41:48;;;;;;;12.07;6.35;;;17.30;99.90;;;;;;5034475;28;20214;-64
2023/10/08 02:44:15;;;;;;;14.70;6.72;;;17.20;99.90;;;;;;5034748;28;20167;-64
2023/10/08 02:46:43;;;;;;;16.00;6.97;;;17.20;99.90;;;;;;5034732;28;20266;-63
2023/10/08 02:49:11;;;;;;;13.73;6.75;;;17.20;99.90;;;;;;5034436;28;20198;-63
2023/10/08 02:51:41;;;;;;;13.32;6.90;;;17.20;99.90;;;;;;5034343;28;20202;-64
2023/10/08 02:54:16;;;;;;;13.93;5.95;;;17.20;99.90;;;;;;5034256;28;20183;-64
2023/10/08 02:56:44;;;;;;;13.00;7.63;;;17.20;99.90;;;;;;5034656;28;20162;-63
2023/10/08 02:59:12;;;;;;;16.98;7.22;;;17.10;99.90;;;;;;5034478;28;20184;-63
2023/10/08 03:01:41;;;;;;;12.73;6.53;;;17.10;99.90;;;;;;5034075;28;20706;-64
2023/10/08 03:04:18;;;;;;;13.82;7.18;;;17.20;99.90;;;;;;5032817;28;20233;-63
2023/10/08 03:06:51;;;;;;;16.80;7.07;;;17.20;99.90;;;;;;5034243;28;20151;-64
2023/10/08 03:09:23;;;;;;;12.40;7.05;;;17.20;99.90;;;;;;5033939;28;20193;-64
2023/10/08 03:11:50;;;;;;;12.63;6.78;;;17.20;99.90;;;;;;5033758;28;20241;-63
2023/10/08 03:14:23;;;;;;;14.43;7.18;;;17.10;99.90;;;;;;5033929;28;20170;-63
2023/10/08 03:16:54;;;;;;;18.60;7.10;;;17.20;99.90;;;;;;5033842;28;20183;-63
2023/10/08 03:19:22;;;;;;;14.85;6.95;;;17.20;99.90;;;;;;5033842;28;20253;-63
2023/10/08 03:21:51;;;;;;;13.35;6.20;;;17.30;99.90;;;;;;5033296;28;20213;-63
2023/10/08 03:27:07;;;;;;;14.05;5.95;;;17.30;99.90;;;;;;5033982;28;20638;-64
2023/10/08 03:29:40;;;;;;;13.13;6.03;;;17.30;99.90;;;;;;5033961;28;20155;-63
2023/10/08 03:32:12;;;;;;;14.77;6.53;;;17.30;99.90;;;;;;5033563;28;20237;-63
2023/10/08 03:34:42;;;;;;;16.02;6.82;;;17.20;99.90;;;;;;5033669;28;20631;-63
2023/10/08 03:37:08;;;;;;;15.98;7.18;;;17.10;99.90;;;;;;5033302;28;20175;-63
2023/10/08 03:42:34;;;;;;;16.40;6.88;;;17.10;99.90;;;;;;5033431;28;20581;-63
2023/10/08 03:45:10;;;;;;;18.85;7.32;;;17.10;99.90;;;;;;5034004;28;20238;-63
2023/10/08 03:47:46;;;;;;;15.23;6.88;;;17.10;99.90;;;;;;5033030;28;20181;-63
2023/10/08 03:50:16;;;;;;;16.88;7.20;;;17.00;99.90;;;;;;5033705;28;20159;-63
2023/10/08 03:52:44;;;;;;;16.80;6.63;;;17.00;99.90;;;;;;5033149;28;20187;-63
2023/10/08 03:57:48;;;;;;;18.30;7.60;;;17.00;99.90;;;;;;5033625;28;20638;-63
2023/10/08 04:00:18;;;;;;;13.45;8.15;;;16.90;99.90;;;;;;5033415;28;20199;-64
2023/10/08 04:02:55;;;;;;;17.88;7.68;;;16.90;99.90;;;;;;5033511;28;20579;-64
2023/10/08 04:05:27;;;;;;;14.10;7.15;;;16.90;99.90;;;;;;5033214;28;20160;-64
2023/10/08 04:13:08;;;;;;;17.02;7.55;;;16.70;99.90;;;;;;5033085;28;20199;-64
2023/10/08 04:15:41;;;;;;;17.00;7.10;;;16.70;99.90;;;;;;5033185;28;20163;-63
2023/10/08 04:18:10;;;;;;;11.93;6.50;;;16.70;99.90;;;;;;5033054;28;20197;-63
2023/10/08 04:20:39;;;;;;;17.33;7.13;;;16.70;99.90;;;;;;5033300;28;20807;-63
2023/10/08 04:23:13;;;;;;;16.60;7.70;;;16.70;99.90;;;;;;5032854;28;20191;-63
2023/10/08 04:25:42;;;;;;;15.73;7.00;;;16.70;99.90;;;;;;5033324;28;20155;-63
2023/10/08 04:28:14;;;;;;;19.35;7.47;;;16.70;99.90;;;;;;5033252;28;20172;-63
2023/10/08 04:30:41;;;;;;;14.85;7.38;;;16.70;99.90;;;;;;5031754;28;20179;-63
2023/10/08 04:33:11;;;;;;;17.70;8.07;;;16.70;99.90;;;;;;5032968;28;20206;-63
2023/10/08 04:35:52;;;;;;;15.95;7.47;;;16.70;99.90;;;;;;5032894;28;20709;-63
2023/10/08 04:38:23;;;;;;;12.50;7.28;;;16.70;99.90;;;;;;5032597;28;20393;-63
2023/10/08 04:40:53;;;;;;;21.20;7.85;;;16.60;99.90;;;;;;5032796;28;20203;-63
2023/10/08 04:43:27;;;;;;;13.25;7.50;;;16.60;99.90;;;;;;5032993;28;20241;-63
2023/10/08 04:45:59;;;;;;;21.42;8.02;;;16.60;99.90;;;;;;5033166;28;20188;-63
2023/10/08 04:48:27;;;;;;;16.90;7.90;;;16.70;99.90;;;;;;5032854;28;20589;-63
2023/10/08 04:50:59;;;;;;;21.55;8.65;;;16.60;99.90;;;;;;5031466;28;20179;-63
2023/10/08 04:53:40;;;;;;;16.98;7.55;;;16.60;99.90;;;;;;5032651;28;20156;-63
2023/10/08 04:56:16;;;;;;;14.20;7.30;;;16.60;99.90;;;;;;5031515;28;20552;-63
2023/10/08 04:58:46;;;;;;;15.40;7.30;;;16.60;99.90;;;;;;5032792;28;20159;-63
2023/10/08 05:17:22;;;;;;;13.90;7.22;;;16.50;99.90;;;;;;5036028;28;20229;-63
2023/10/08 05:20:19;;;;;;;15.20;7.43;;;16.60;99.90;;;;;;5035913;28;20162;-63
2023/10/08 05:22:55;;;;;;;15.32;6.68;;;16.50;99.90;;;;;;5035671;28;20191;-63
2023/10/08 05:30:38;;;;;;;13.38;7.10;;;16.40;99.90;;;;;;5035838;28;20246;-63
2023/10/08 05:38:16;;;;;;;19.80;7.65;;;16.30;99.90;;;;;;5035657;28;20207;-64
2023/10/08 06:03:09;;;;;;;12.73;7.63;;;16.10;99.90;;;;;;5035625;28;20248;-62
2023/10/08 06:13:10;;;;;;;14.10;8.25;;;16.10;99.90;;;;;;5055031;28;20561;-64
2023/10/08 06:15:48;;;;;;;15.65;7.35;;;16.20;99.90;;;;;;5055354;28;20185;-63
2023/10/08 06:18:15;;;;;;;16.40;7.15;;;16.20;99.90;;;;;;5037482;28;20186;-62
2023/10/08 06:20:44;;;;;;;21.65;8.55;;;16.20;99.90;;;;;;5035218;28;20281;-63
2023/10/08 06:23:18;;;;;;;14.77;8.15;;;16.20;99.90;;;;;;5033470;28;20194;-63
2023/10/08 06:25:44;;;;;;;21.15;7.85;;;16.20;99.90;;;;;;5035301;28;20155;-63
2023/10/08 06:28:36;;;;;;;16.13;8.25;;;16.30;99.90;;;;;;5035412;28;20159;-63
2023/10/08 06:31:03;;;;;;;14.73;7.85;;;16.30;99.90;;;;;;5034569;28;20214;-62
2023/10/08 06:33:33;;;;;;;27.20;8.63;;;16.30;99.90;;;;;;5035024;28;20197;-62
2023/10/08 06:36:02;;;;;;;16.60;7.63;;;16.20;99.90;;;;;;5035106;28;20225;-63
2023/10/08 06:38:33;;;;;;;17.65;7.85;;;16.20;99.90;;;;;;5034295;28;20660;-63
2023/10/08 06:41:15;;;;;;;15.30;7.45;;;16.20;99.90;;;;;;5042541;28;20800;-62
2023/10/08 06:43:48;;;;;;;16.05;7.28;;;16.20;99.90;;;;;;5054695;28;20154;-62
2023/10/08 06:46:14;;;;;;;14.93;7.28;;;16.30;99.90;;;;;;5053615;28;20182;-63
2023/10/08 06:48:45;;;;;;;18.73;8.02;;;16.30;99.90;;;;;;5033167;28;20182;-62
2023/10/08 06:51:17;;;;;;;14.52;7.03;;;16.20;99.90;;;;;;5033023;28;20656;-63
2023/10/08 06:53:44;;;;;;;14.15;7.97;;;16.20;99.90;;;;;;5034495;28;20524;-62
2023/10/08 06:56:12;;;;;;;16.00;8.32;;;16.10;99.90;;;;;;5034262;28;20182;-62
2023/10/08 06:58:48;;;;;;;13.85;6.05;;;16.10;99.90;;;;;;5034249;28;20640;-62
2023/10/08 07:01:24;;;;;;;8.57;6.15;;;16.00;99.90;;;;;;5034418;28;20706;-62
2023/10/08 07:04:03;;;;;;;8.20;6.57;;;16.00;99.90;;;;;;5034367;28;20190;-63
2023/10/08 07:06:33;;;;;;;10.70;7.28;;;15.90;99.90;;;;;;5034313;28;20158;-62
2023/10/08 07:09:04;;;;;;;12.18;8.30;;;15.90;99.90;;;;;;5033839;28;20152;-63
2023/10/08 07:11:34;;;;;;;9.15;7.25;;;15.70;99.90;;;;;;5046342;28;20572;-63
2023/10/08 07:14:01;;;;;;;9.45;6.72;;;15.50;99.90;;;;;;5053953;28;20169;-63
2023/10/08 07:16:28;;;;;;;10.25;5.75;;;15.40;99.90;;;;;;5049562;28;20191;-62
2023/10/08 07:19:01;;;;;;;10.40;4.80;;;15.30;99.90;;;;;;5033938;28;20657;-62
2023/10/08 07:21:44;;;;;;;10.38;5.43;;;15.20;99.90;;;;;;5033482;28;20203;-62
2023/10/08 07:24:15;;;;;;;7.72;4.93;;;15.10;99.90;;;;;;5032261;28;20182;-64
2023/10/08 07:26:46;;;;;;;9.93;5.63;;;15.00;99.90;;;;;;5034136;28;20184;-62
2023/10/08 07:29:19;;;;;;;12.57;7.40;;;15.00;99.90;;;;;;5033991;28;20159;-62
2023/10/08 07:31:52;;;;;;;12.80;6.93;;;14.90;99.90;;;;;;5033801;28;20230;-63
2023/10/08 07:34:25;;;;;;;12.77;6.70;;;14.80;99.90;;;;;;5033965;28;20242;-62
2023/10/08 07:36:52;;;;;;;11.75;7.10;;;14.80;99.90;;;;;;5032254;28;20172;-62
2023/10/08 07:39:26;;;;;;;12.75;7.63;;;14.80;99.90;;;;;;5033454;28;20225;-62
2023/10/08 07:41:55;;;;;;;14.45;8.68;;;14.70;99.90;;;;;;5048099;28;20241;-63
2023/10/08 07:44:21;;;;;;;16.55;9.77;;;14.80;99.90;;;;;;5053450;28;20170;-62
2023/10/08 07:46:54;;;;;;;13.38;7.65;;;14.70;99.90;;;;;;5047662;28;20186;-62
2023/10/08 07:49:20;;;;;;;10.85;5.85;;;14.70;99.90;;;;;;5032214;28;20217;-63
2023/10/08 07:51:52;;;;;;;9.52;4.80;;;14.60;99.90;;;;;;5033560;28;20682;-62
2023/10/08 07:54:23;;;;;;;6.40;4.90;;;14.50;99.90;;;;;;5034081;28;20163;-64
2023/10/08 07:56:51;;;;;;;9.20;4.65;;;14.40;99.90;;;;;;5033370;28;20181;-64
2023/10/08 07:59:18;;;;;;;9.73;4.47;;;14.40;99.90;;;;;;5033436;28;20170;-64
2023/10/08 08:01:44;;;;;;;9.18;4.38;;;14.40;99.90;;;;;;5034159;28;20214;-63
2023/10/08 08:04:21;;;;;;;5.20;3.20;;;14.30;99.90;;;;;;5034342;28;20171;-63
2023/10/08 08:06:50;;;;;;;4.05;2.97;;;14.20;99.90;;;;;;5032652;28;20585;-63
2023/10/08 08:09:23;;;;;;;3.00;2.70;;;14.10;99.90;;;;;;5032490;28;20554;-63
2023/10/08 08:11:49;;;;;;;3.65;2.85;;;14.10;99.90;;;;;;5048289;28;20201;-64
2023/10/08 08:14:24;;;;;;;3.05;2.75;;;14.20;99.90;;;;;;5053099;28;20186;-63
2023/10/08 08:16:50;;;;;;;2.55;2.35;;;14.20;99.90;;;;;;5045788;28;20189;-64
2023/10/08 08:19:24;;;;;;;3.58;2.40;;;14.20;99.90;;;;;;5033349;28;20183;-63
2023/10/08 08:21:52;;;;;;;3.83;2.13;;;14.20;99.90;;;;;;5033705;28;20575;-64
2023/10/08 08:24:28;;;;;;;2.08;1.92;;;14.20;99.90;;;;;;5033556;28;20221;-64
2023/10/08 08:29:55;;;;;;;2.67;2.03;;;14.20;99.90;;;;;;5039703;28;20652;-64
2023/10/08 08:32:23;;;;;;;2.00;1.83;;;14.30;99.90;;;;;;5033236;28;20195;-64
2023/10/08 08:34:52;;;;;;;2.05;1.90;;;14.20;99.90;;;;;;5036157;28;20702;-64
2023/10/08 08:37:19;;;;;;;1.92;1.83;;;14.20;99.90;;;;;;5036593;28;20182;-63
2023/10/08 08:39:45;;;;;;;1.50;1.50;;;14.10;99.90;;;;;;5036761;28;20233;-63
2023/10/08 08:42:11;;;;;;;1.60;1.60;;;14.10;99.90;;;;;;5054697;28;20210;-63
2023/10/08 08:44:45;;;;;;;1.50;1.50;;;14.10;99.90;;;;;;5055371;28;20183;-64
2023/10/08 08:47:17;;;;;;;1.63;1.52;;;14.10;99.90;;;;;;5047796;28;20198;-64
2023/10/08 08:49:47;;;;;;;1.60;1.60;;;14.10;99.90;;;;;;5035337;28;20553;-63
2023/10/08 08:52:14;;;;;;;1.63;1.50;;;14.10;99.90;;;;;;5036257;28;20609;-63
2023/10/08 08:54:42;;;;;;;1.80;1.70;;;14.10;99.90;;;;;;5036951;28;20172;-63
2023/10/08 08:57:13;;;;;;;1.98;1.70;;;14.10;99.90;;;;;;5036523;28;20183;-63
2023/10/08 08:59:59;;;;;;;1.95;1.75;;;14.10;99.90;;;;;;5036481;28;20632;-63
2023/10/08 09:02:25;;;;;;;1.92;1.80;;;14.00;99.90;;;;;;5036495;28;20207;-63
2023/10/08 09:04:53;;;;;;;2.03;1.77;;;14.00;99.90;;;;;;5036580;28;20538;-63
2023/10/08 09:07:23;;;;;;;1.80;1.70;;;14.00;99.90;;;;;;5036104;28;20167;-63
2023/10/08 09:09:49;;;;;;;2.53;1.90;;;14.00;99.90;;;;;;5036098;28;20168;-64
2023/10/08 09:12:17;;;;;;;2.35;1.90;;;13.90;99.90;;;;;;5053544;28;20359;-62
2023/10/08 09:14:44;;;;;;;3.78;1.70;;;13.90;99.90;;;;;;5056093;28;20229;-63
2023/10/08 09:17:11;;;;;;;6.47;1.80;;;13.90;99.90;;;;;;5047101;28;20180;-63
2023/10/08 09:19:38;;;;;;;3.13;1.70;;;13.80;99.90;;;;;;5034847;28;20206;-63
2023/10/08 09:22:04;;;;;;;3.03;1.90;;;13.90;99.90;;;;;;5035998;28;20578;-63
2023/10/08 09:24:36;;;;;;;3.28;1.90;;;13.90;99.90;;;;;;5035673;28;20178;-64
2023/10/08 09:27:09;;;;;;;4.65;2.03;;;13.80;99.90;;;;;;5035936;28;20190;-63
2023/10/08 09:29:39;;;;;;;2.45;1.92;;;13.80;99.90;;;;;;5036220;28;20178;-63
2023/10/08 09:32:08;;;;;;;1.90;1.80;;;13.80;99.90;;;;;;5035682;28;20202;-64
2023/10/08 09:34:34;;;;;;;2.40;1.92;;;13.70;99.90;;;;;;5035742;28;20175;-64
2023/10/08 09:37:01;;;;;;;8.88;2.20;;;13.80;99.90;;;;;;5035763;28;20250;-63
2023/10/08 09:39:34;;;;;;;2.95;1.95;;;13.80;99.90;;;;;;5034154;28;20675;-64
2023/10/08 09:42:11;;;;;;;2.05;1.70;;;13.80;99.90;;;;;;5052169;28;20601;-64
2023/10/08 09:44:37;;;;;;;3.60;2.10;;;13.80;99.90;;;;;;5053999;28;20170;-64
2023/10/08 09:47:10;;;;;;;4.15;1.73;;;13.80;99.90;;;;;;5047208;28;20186;-63
2023/10/08 09:49:47;;;;;;;6.97;2.00;;;13.90;99.90;;;;;;5035837;28;20238;-64
2023/10/08 09:52:15;;;;;;;3.70;2.00;;;13.90;99.90;;;;;;5034151;28;20203;-64
2023/10/08 09:54:47;;;;;;;5.18;2.03;;;13.90;99.90;;;;;;5035432;28;20543;-63
2023/10/08 09:57:13;;;;;;;2.40;1.92;;;14.00;99.90;;;;;;5035401;28;20571;-64
2023/10/08 09:59:41;;;;;;;3.05;2.20;;;14.00;99.90;;;;;;5035293;28;20225;-64
2023/10/08 10:02:10;;;;;;;2.15;1.88;;;14.00;99.90;;;;;;5035175;28;20268;-64
2023/10/08 10:04:42;;;;;;;2.83;2.20;;;14.10;99.90;;;;;;5035292;28;20167;-64
2023/10/08 10:07:16;;;;;;;2.22;1.80;;;14.20;99.90;;;;;;5033886;28;20222;-64
2023/10/08 10:09:49;;;;;;;4.57;2.30;;;14.30;99.90;;;;;;5034915;28;20511;-64
2023/10/08 10:12:25;;;;;;;7.07;2.00;;;14.40;99.90;;;;;;5053859;28;20253;-64
2023/10/08 10:14:55;;;;;;;4.20;2.13;;;14.50;99.90;;;;;;5055271;28;20568;-64
2023/10/08 10:17:25;;;;;;;4.90;2.60;;;14.60;99.90;;;;;;5044551;28;20182;-64
2023/10/08 10:20:01;;;;;;;3.25;2.17;;;14.70;99.90;;;;;;5035019;28;20155;-65
2023/10/08 10:22:30;;;;;;;4.10;1.95;;;14.80;99.90;;;;;;5033305;28;20208;-64
2023/10/08 10:25:32;;;;;;;4.22;2.28;;;14.80;99.90;;;;;;5034832;28;20175;-64
2023/10/08 10:27:54;;;;;;;4.97;2.35;;;14.80;99.90;;;;;;5035349;28;20191;-64
2023/10/08 10:30:20;;;;;;;3.30;2.38;;;14.80;99.90;;;;;;5033418;28;20175;-64
2023/10/08 10:32:46;;;;;;;5.03;2.40;;;14.80;99.90;;;;;;5034760;28;20286;-63
2023/10/08 10:35:18;;;;;;;4.10;2.13;;;14.90;99.90;;;;;;5034767;28;20207;-64
2023/10/08 10:37:51;;;;;;;4.45;2.22;;;14.80;99.90;;;;;;5033122;28;20195;-64
2023/10/08 10:40:29;;;;;;;3.35;2.28;;;14.70;99.90;;;;;;5036692;28;20273;-64
2023/10/08 10:43:00;;;;;;;3.53;2.30;;;14.70;99.90;;;;;;5054521;28;20182;-64
2023/10/08 10:45:35;;;;;;;2.83;2.00;;;14.80;99.90;;;;;;5054392;28;20174;-64
2023/10/08 10:48:21;;;;;;;4.20;1.90;;;14.80;99.90;;;;;;5037366;28;20233;-63
2023/10/08 10:51:10;;;;;;;5.38;2.10;;;14.80;99.90;;;;;;5034335;28;20241;-64
2023/10/08 10:53:56;;;;;;;3.80;2.05;;;14.80;99.90;;;;;;5033943;28;20614;-63
2023/10/08 10:56:29;;;;;;;2.70;2.15;;;14.80;99.90;;;;;;5032537;28;20186;-64
2023/10/08 10:59:27;;;;;;;9.73;2.40;;;14.80;99.90;;;;;;5034100;28;20680;-63
2023/10/08 11:02:21;;;;;;;3.28;2.00;;;14.80;99.90;;;;;;5033744;28;20679;-63
2023/10/08 11:04:48;;;;;;;7.20;2.35;;;14.80;99.90;;;;;;5034753;28;20175;-63
2023/10/08 11:07:23;;;;;;;5.90;2.40;;;14.80;99.90;;;;;;5034141;28;20179;-63
2023/10/08 11:09:52;;;;;;;3.42;2.20;;;14.80;99.90;;;;;;5033833;28;20171;-63
2023/10/08 11:12:22;;;;;;;3.65;2.17;;;14.80;99.90;;;;;;5052924;28;20213;-63
2023/10/08 11:14:51;;;;;;;5.93;2.42;;;14.90;99.90;;;;;;5054213;28;20155;-63
2023/10/08 11:17:24;;;;;;;2.63;2.00;;;14.90;99.90;;;;;;5044018;28;20179;-63
2023/10/08 11:19:51;;;;;;;2.85;2.17;;;15.00;99.90;;;;;;5033917;28;20242;-63
2023/10/08 11:22:18;;;;;;;4.00;2.30;;;15.20;99.90;;;;;;5033750;28;20226;-63
2023/10/08 11:24:53;;;;;;;4.80;1.90;;;15.30;99.90;;;;;;5033694;28;20523;-63
2023/10/08 11:27:28;;;;;;;3.83;2.15;;;15.40;99.90;;;;;;5032428;28;20174;-63
2023/10/08 11:30:00;;;;;;;6.63;2.30;;;15.30;99.90;;;;;;5033863;28;20155;-63
2023/10/08 11:32:27;;;;;;;6.60;2.17;;;15.40;99.90;;;;;;5032549;28;20203;-64
2023/10/08 11:35:00;;;;;;;3.78;2.15;;;15.30;99.90;;;;;;5033752;28;20246;-63
2023/10/08 11:37:33;;;;;;;4.95;2.00;;;15.30;99.90;;;;;;5033669;28;20736;-63
2023/10/08 11:40:08;;;;;;;3.10;2.08;;;15.40;99.90;;;;;;5033449;28;20298;-63
2023/10/08 11:45:08;;;;;;;1.80;1.70;;;15.50;99.90;;;;;;5014022;28;20192;-63
2023/10/08 11:47:35;;;;;;;3.55;1.83;;;15.40;99.90;;;;;;5025207;28;20185;-63
2023/10/08 11:50:10;;;;;;;3.33;2.10;;;15.50;99.90;;;;;;5033703;28;20225;-63
2023/10/08 11:52:46;;;;;;;3.08;2.20;;;15.50;99.90;;;;;;5032098;28;20564;-63
2023/10/08 11:55:18;;;;;;;2.15;1.90;;;15.60;99.90;;;;;;5034287;28;20213;-64
2023/10/08 11:57:50;;;;;;;3.67;2.10;;;15.60;99.90;;;;;;5033557;28;20160;-63
2023/10/08 12:00:19;;;;;;;4.07;2.03;;;15.70;99.90;;;;;;5033241;28;20202;-63
2023/10/08 12:02:47;;;;;;;5.57;2.65;;;15.70;99.90;;;;;;5033967;28;20197;-63
2023/10/08 12:05:18;;;;;;;2.40;2.20;;;15.70;99.90;;;;;;5033803;28;20182;-63
2023/10/08 12:07:50;;;;;;;3.00;2.08;;;15.80;99.90;;;;;;5033184;28;20228;-63
2023/10/08 12:10:22;;;;;;;3.40;2.08;;;15.80;99.90;;;;;;5036795;23;20238;-84
2023/10/08 12:12:52;;;;;;;2.05;1.90;;;15.90;99.90;;;;;;5019150;28;20203;-85
2023/10/08 12:15:22;;;;;;;3.90;1.98;;;15.90;99.90;;;;;;5019322;28;20176;-84
2023/10/08 12:20:43;;;;;;;2.72;1.98;;;15.90;99.90;;;;;;5019763;28;20267;-82
2023/10/08 12:23:24;;;;;;;3.70;2.00;;;16.00;99.90;;;;;;5017356;28;20199;-82
2023/10/08 12:25:55;;;;;;;3.70;1.98;;;15.90;99.90;;;;;;5018399;28;20175;-82
2023/10/08 12:28:25;;;;;;;2.47;1.83;;;15.90;99.90;;;;;;5017952;28;20198;-82
2023/10/08 12:30:55;;;;;;;2.90;2.25;;;15.90;99.90;;;;;;5018492;28;20258;-82
2023/10/08 12:33:24;;;;;;;3.42;2.00;;;15.90;99.90;;;;;;5017955;28;20156;-82
2023/10/08 12:35:55;;;;;;;2.40;1.80;;;16.00;99.90;;;;;;5016735;28;20238;-82
2023/10/08 12:38:22;;;;;;;1.95;1.75;;;16.00;99.90;;;;;;5016795;28;20178;-83
2023/10/08 12:40:54;;;;;;;2.55;1.70;;;16.00;99.90;;;;;;5017609;28;20250;-83
2023/10/08 12:43:27;;;;;;;3.25;2.00;;;16.10;99.90;;;;;;5016641;28;20176;-82
2023/10/08 12:45:53;;;;;;;3.92;1.65;;;16.10;99.90;;;;;;5016732;28;20203;-82
2023/10/08 12:48:25;;;;;;;3.53;1.88;;;16.10;99.90;;;;;;5016726;28;20184;-82
2023/10/08 12:50:58;;;;;;;1.80;1.70;;;16.00;99.90;;;;;;5016516;28;20559;-82
2023/10/08 12:53:36;;;;;;;3.28;2.00;;;16.00;99.90;;;;;;5018009;28;20527;-83
2023/10/08 12:56:05;;;;;;;2.65;2.22;;;16.10;99.90;;;;;;5016895;28;20208;-82
2023/10/08 12:58:41;;;;;;;2.80;2.22;;;16.10;99.90;;;;;;5018007;28;20182;-83
2023/10/08 13:01:09;;;;;;;3.28;1.83;;;16.10;99.90;;;;;;5016895;28;20195;-82
2023/10/08 13:03:41;;;;;;;2.22;1.60;;;16.10;99.90;;;;;;5018792;28;20263;-82
2023/10/08 13:06:14;;;;;;;2.83;1.90;;;16.00;99.90;;;;;;5018471;28;20156;-82
2023/10/08 13:08:40;;;;;;;1.80;1.70;;;16.10;99.90;;;;;;5016214;28;20171;-82
2023/10/08 13:11:06;;;;;;;2.20;1.70;;;16.00;99.90;;;;;;5016189;28;20180;-82
2023/10/08 13:13:36;;;;;;;2.05;1.80;;;16.10;99.90;;;;;;5017393;28;20215;-82
2023/10/08 13:16:07;;;;;;;3.03;1.98;;;16.10;99.90;;;;;;5016264;28;20168;-83
2023/10/08 13:18:37;;;;;;;1.60;1.50;;;16.10;99.90;;;;;;5016200;28;20200;-83
2023/10/08 13:21:04;;;;;;;2.20;1.70;;;16.10;99.90;;;;;;5014814;28;20207;-82
2023/10/08 13:23:33;;;;;;;1.75;1.65;;;16.10;99.90;;;;;;5016030;28;20175;-83
2023/10/08 13:26:04;;;;;;;2.63;1.90;;;16.10;99.90;;;;;;5015755;28;20277;-83
2023/10/08 13:28:33;;;;;;;1.80;1.70;;;16.20;99.90;;;;;;5017112;28;20623;-83
2023/10/08 13:31:00;;;;;;;1.80;1.70;;;16.20;99.90;;;;;;5015905;28;20569;-82
2023/10/08 13:33:26;;;;;;;4.07;2.05;;;16.10;99.90;;;;;;5015704;28;20179;-82
2023/10/08 13:35:52;;;;;;;3.42;2.00;;;16.20;99.90;;;;;;5015587;28;20184;-82
2023/10/08 13:38:23;;;;;;;2.00;1.80;;;16.10;99.90;;;;;;5016152;28;20180;-83
2023/10/08 13:43:34;;;;;;;2.00;1.80;;;16.00;99.90;;;;;;5017420;28;20208;-82
2023/10/08 13:46:06;;;;;;;3.15;1.90;;;16.00;99.90;;;;;;5021441;28;20171;-83
2023/10/08 13:48:32;;;;;;;4.80;2.03;;;16.10;99.90;;;;;;5021817;28;20162;-83
2023/10/08 13:51:00;;;;;;;3.67;2.00;;;16.00;99.90;;;;;;5020977;28;20183;-82
2023/10/08 13:53:29;;;;;;;2.13;1.80;;;16.10;99.90;;;;;;5018915;28;20176;-83
2023/10/08 13:56:04;;;;;;;2.67;1.90;;;16.10;99.90;;;;;;5019748;28;20639;-82
2023/10/08 13:58:40;;;;;;;2.35;1.83;;;16.10;99.90;;;;;;5018547;28;20183;-83
2023/10/08 14:01:18;;;;;;;2.30;2.00;;;16.10;99.90;;;;;;5017921;28;20203;-82
2023/10/08 14:03:45;;;;;;;2.60;2.35;;;16.10;99.90;;;;;;5022044;28;20652;-83
2023/10/08 14:06:11;;;;;;;2.45;2.25;;;16.00;99.90;;;;;;5023050;28;20535;-83
2023/10/08 14:08:38;;;;;;;2.70;2.20;;;15.90;99.90;;;;;;5019639;28;20179;-83
2023/10/08 14:11:05;;;;;;;2.50;2.10;;;16.00;99.90;;;;;;5019905;28;20180;-83
2023/10/08 14:13:32;;;;;;;3.17;2.25;;;16.00;99.90;;;;;;5019214;28;20227;-83
2023/10/08 14:16:08;;;;;;;4.28;2.45;;;16.10;99.90;;;;;;5019088;28;20190;-83
2023/10/08 14:18:40;;;;;;;3.00;2.50;;;16.10;99.90;;;;;;5018918;28;20168;-83
2023/10/08 14:21:10;;;;;;;3.70;2.40;;;16.10;99.90;;;;;;5018261;28;20254;-82
2023/10/08 14:23:39;;;;;;;3.25;2.05;;;16.10;99.90;;;;;;5019612;28;20173;-83
2023/10/08 14:26:07;;;;;;;3.42;1.90;;;16.00;99.90;;;;;;5017963;28;20175;-83
2023/10/08 14:28:58;;;;;;;4.22;2.30;;;16.00;99.90;;;;;;5018347;28;20666;-83